createdAt,value
2023-03-14T00:03:16.482Z,6.50
2023-03-14T00:08:20.793Z,6.60
2023-03-14T00:13:23.753Z,6.80
2023-03-14T00:18:26.696Z,6.80
2023-03-14T00:23:30.352Z,7.00
2023-03-14T00:28:33.282Z,6.60
2023-03-14T00:33:36.502Z,6.50
2023-03-14T00:38:39.960Z,6.70
2023-03-14T00:43:43.124Z,6.60
2023-03-14T00:48:47.385Z,6.20
2023-03-14T00:53:50.311Z,6.00
2023-03-14T00:58:56.901Z,5.80
2023-03-14T01:03:59.772Z,6.10
2023-03-14T01:09:02.956Z,6.10
2023-03-14T01:14:05.864Z,6.00
2023-03-14T01:19:08.827Z,6.40
2023-03-14T01:24:12.360Z,6.10
2023-03-14T01:29:15.740Z,5.50
2023-03-14T01:34:18.703Z,5.30
2023-03-14T01:39:21.786Z,6.00
2023-03-14T01:44:24.892Z,5.50
2023-03-14T01:49:30.990Z,5.80
2023-03-14T01:54:49.232Z,5.80
2023-03-14T02:00:22.572Z,6.10
2023-03-14T02:05:29.897Z,5.90
2023-03-14T02:10:40.802Z,5.70
2023-03-14T02:15:43.807Z,5.50
2023-03-14T02:21:03.020Z,5.80
2023-03-14T02:26:22.632Z,5.70
2023-03-14T02:31:25.925Z,5.40
2023-03-14T02:36:28.829Z,5.40
2023-03-14T02:41:31.951Z,5.00
2023-03-14T02:46:35.221Z,5.10
2023-03-14T02:51:38.474Z,5.60
2023-03-14T02:56:41.451Z,5.60
2023-03-14T03:01:44.336Z,6.00
2023-03-14T03:06:47.251Z,6.40
2023-03-14T03:11:50.415Z,6.00
2023-03-14T03:16:53.367Z,5.90
2023-03-14T03:21:56.223Z,5.40
2023-03-14T03:26:59.094Z,5.20
2023-03-14T03:32:01.943Z,5.40
2023-03-14T03:37:04.842Z,5.50
2023-03-14T03:42:07.803Z,4.70
2023-03-14T03:47:10.653Z,5.20
2023-03-14T03:52:13.526Z,5.20
2023-03-14T03:57:16.450Z,5.50
2023-03-14T04:02:19.306Z,5.40
2023-03-14T04:07:22.280Z,5.30
2023-03-14T04:12:25.170Z,5.10
2023-03-14T04:17:28.427Z,5.30
2023-03-14T04:22:31.309Z,5.50
2023-03-14T04:27:34.189Z,5.20
2023-03-14T04:32:38.048Z,5.20
2023-03-14T04:37:42.896Z,5.20
2023-03-14T04:42:45.755Z,5.90
2023-03-14T04:47:48.593Z,5.20
2023-03-14T04:52:51.509Z,5.80
2023-03-14T04:57:54.428Z,5.40
2023-03-14T05:02:57.347Z,5.60
2023-03-14T05:08:00.342Z,5.70
2023-03-14T05:13:03.429Z,5.60
2023-03-14T05:18:06.540Z,5.70
2023-03-14T05:23:09.551Z,5.70
2023-03-14T05:28:13.107Z,5.50
2023-03-14T05:33:16.022Z,5.60
2023-03-14T05:38:19.521Z,6.10
2023-03-14T05:43:22.400Z,5.80
2023-03-14T05:48:25.276Z,5.40
2023-03-14T05:53:30.055Z,5.60
2023-03-14T05:58:32.951Z,5.20
2023-03-14T06:03:35.974Z,5.80
2023-03-14T06:08:39.058Z,5.20
2023-03-14T06:13:41.992Z,5.90
2023-03-14T06:18:47.529Z,5.50
2023-03-14T06:23:50.519Z,5.20
2023-03-14T06:28:54.856Z,5.30
2023-03-14T06:33:57.848Z,5.10
2023-03-14T06:39:00.838Z,4.80
2023-03-14T06:44:03.847Z,5.10
2023-03-14T06:49:06.845Z,5.00
2023-03-14T06:54:10.043Z,4.90
2023-03-14T06:59:13.280Z,4.70
2023-03-14T07:04:16.349Z,4.90
2023-03-14T07:09:19.261Z,5.00
2023-03-14T07:14:22.177Z,5.10
2023-03-14T07:19:25.290Z,5.00
2023-03-14T07:24:28.119Z,4.90
2023-03-14T07:29:32.172Z,5.20
2023-03-14T07:34:35.448Z,4.70
2023-03-14T07:39:38.364Z,4.60
2023-03-14T07:44:41.414Z,3.70
2023-03-14T07:49:44.609Z,3.80
2023-03-14T07:54:47.525Z,3.50
2023-03-14T07:59:50.624Z,3.20
2023-03-14T08:04:53.556Z,3.30
2023-03-14T08:09:56.593Z,2.80
2023-03-14T08:15:00.669Z,2.90
2023-03-14T08:20:07.798Z,3.30
2023-03-14T08:25:11.606Z,3.30
2023-03-14T08:30:17.262Z,3.10
2023-03-14T08:35:20.594Z,2.90
2023-03-14T08:40:23.570Z,3.00
2023-03-14T08:45:26.525Z,3.10
2023-03-14T08:50:29.511Z,3.30
2023-03-14T08:55:39.893Z,3.00
2023-03-14T09:00:42.916Z,3.30
2023-03-14T09:05:45.987Z,3.20
2023-03-14T09:10:49.347Z,2.80
2023-03-14T09:15:56.428Z,2.90
2023-03-14T09:20:59.347Z,3.50
2023-03-14T09:26:02.545Z,3.60
2023-03-14T09:31:16.483Z,3.40
2023-03-14T09:36:19.413Z,4.50
2023-03-14T09:41:28.972Z,3.10
2023-03-14T09:46:32.667Z,3.10
2023-03-14T09:51:35.593Z,3.70
2023-03-14T09:56:38.544Z,2.90
2023-03-14T10:01:41.903Z,3.00
2023-03-14T10:06:45.062Z,3.00
2023-03-14T10:11:50.168Z,2.70
2023-03-14T10:16:53.138Z,2.60
2023-03-14T10:21:56.874Z,2.60
2023-03-14T10:27:03.502Z,2.80
2023-03-14T10:32:10.740Z,2.90
2023-03-14T10:37:23.364Z,2.60
2023-03-14T10:42:32.724Z,2.20
2023-03-14T10:47:35.651Z,2.90
2023-03-14T10:52:57.770Z,2.90
2023-03-14T10:58:01.324Z,2.60
2023-03-14T11:03:12.079Z,2.70
2023-03-14T11:08:51.273Z,3.20
2023-03-14T11:14:26.304Z,3.30
2023-03-14T11:19:56.104Z,2.90
2023-03-14T11:25:39.163Z,3.20
2023-03-14T11:30:54.214Z,2.60
2023-03-14T11:36:11.728Z,2.90
2023-03-14T11:41:41.049Z,2.80
2023-03-14T11:47:00.629Z,3.30
2023-03-14T11:52:07.326Z,3.00
2023-03-14T11:57:16.746Z,3.30
2023-03-14T12:02:51.095Z,3.30
2023-03-14T12:08:10.673Z,3.70
2023-03-14T12:13:14.912Z,3.50
2023-03-14T12:18:27.292Z,3.80
2023-03-14T12:23:52.422Z,3.60
2023-03-14T12:28:58.383Z,4.10
2023-03-14T12:34:10.383Z,3.90
2023-03-14T12:40:07.498Z,3.80
2023-03-14T12:45:26.855Z,4.80
2023-03-14T12:50:43.673Z,5.20
2023-03-14T12:55:51.260Z,6.90
2023-03-14T13:01:00.491Z,7.30
2023-03-14T13:06:05.601Z,5.10
2023-03-14T13:11:30.079Z,5.10
2023-03-14T13:16:33.146Z,4.60
2023-03-14T13:21:36.761Z,5.10
2023-03-14T13:26:43.822Z,5.00
2023-03-14T13:31:47.955Z,4.50
2023-03-14T13:36:53.880Z,4.80
2023-03-14T13:42:00.957Z,5.90
2023-03-14T13:47:06.529Z,5.60
2023-03-14T13:52:32.835Z,6.70
2023-03-14T13:57:52.112Z,5.50
2023-03-14T14:03:15.496Z,6.20
2023-03-14T14:08:18.456Z,5.00
2023-03-14T14:13:21.430Z,5.00
2023-03-14T14:18:26.473Z,5.50
2023-03-14T14:23:29.785Z,5.70
2023-03-14T14:28:35.475Z,5.60
2023-03-14T14:34:01.889Z,5.20
2023-03-14T14:39:19.723Z,5.60
2023-03-14T14:44:34.892Z,5.90
2023-03-14T14:49:38.831Z,5.30
2023-03-14T14:54:51.601Z,5.50
2023-03-14T14:59:57.285Z,5.60
2023-03-14T15:05:00.432Z,5.90
2023-03-14T15:10:04.262Z,5.10
2023-03-14T15:15:08.620Z,5.50
2023-03-14T15:20:14.797Z,5.30
2023-03-14T15:25:40.006Z,5.40
2023-03-14T15:30:40.830Z,5.50
2023-03-14T15:35:43.896Z,5.30
2023-03-14T15:40:46.929Z,5.30
2023-03-14T15:45:51.554Z,5.10
2023-03-14T15:50:54.786Z,5.60
2023-03-14T15:55:57.701Z,5.50
2023-03-14T16:01:02.399Z,5.80
2023-03-14T16:06:05.878Z,6.90
2023-03-14T16:11:10.018Z,8.10
2023-03-14T16:16:16.116Z,7.80
2023-03-14T16:21:19.935Z,7.90
2023-03-14T16:26:22.794Z,8.00
2023-03-14T16:31:27.235Z,7.60
2023-03-14T16:36:30.428Z,7.10
2023-03-14T16:41:33.563Z,7.90
2023-03-14T16:46:37.695Z,7.40
2023-03-14T16:51:42.056Z,8.00
2023-03-14T16:56:45.336Z,8.50
2023-03-14T17:01:49.968Z,8.00
2023-03-14T17:06:53.363Z,8.10
2023-03-14T17:11:56.311Z,9.20
2023-03-14T17:17:00.650Z,10.20
2023-03-14T17:22:21.951Z,8.90
2023-03-14T17:27:25.893Z,9.20
2023-03-14T17:32:29.281Z,8.90
2023-03-14T17:37:34.830Z,8.70
2023-03-14T17:42:37.734Z,8.30
2023-03-14T17:47:40.842Z,8.50
2023-03-14T17:52:43.869Z,7.70
2023-03-14T17:57:47.030Z,8.20
2023-03-14T18:02:51.108Z,8.10
2023-03-14T18:07:54.459Z,7.80
2023-03-14T18:12:57.606Z,7.30
2023-03-14T18:18:04.250Z,7.80
2023-03-14T18:23:07.938Z,7.20
2023-03-14T18:28:13.851Z,6.90
2023-03-14T18:33:16.994Z,7.20
2023-03-14T18:38:21.644Z,7.50
2023-03-14T18:43:24.734Z,7.40
2023-03-14T18:48:27.622Z,7.20
2023-03-14T18:53:33.531Z,6.70
2023-03-14T18:58:38.311Z,6.80
2023-03-14T19:03:42.133Z,6.60
2023-03-14T19:08:45.851Z,6.20
2023-03-14T19:13:49.641Z,6.50
2023-03-14T19:18:52.588Z,6.10
2023-03-14T19:23:55.548Z,6.10
2023-03-14T19:28:59.231Z,6.40
2023-03-14T19:34:02.395Z,6.20
2023-03-14T19:39:06.168Z,7.00
2023-03-14T19:44:09.059Z,6.50
2023-03-14T19:49:12.358Z,6.90
2023-03-14T19:54:15.430Z,7.00
2023-03-14T19:59:19.554Z,6.40
2023-03-14T20:04:25.532Z,6.60
2023-03-14T20:09:28.762Z,7.00
2023-03-14T20:14:31.674Z,7.80
2023-03-14T20:19:34.542Z,7.10
2023-03-14T20:24:37.502Z,7.60
2023-03-14T20:29:40.296Z,7.80
2023-03-14T20:34:43.214Z,7.40
2023-03-14T20:39:46.124Z,7.00
2023-03-14T20:44:48.988Z,7.60
2023-03-14T20:49:52.527Z,9.00
2023-03-14T20:54:56.831Z,8.50
2023-03-14T21:00:01.599Z,8.40
2023-03-14T21:05:06.233Z,7.70
2023-03-14T21:10:13.648Z,9.10
2023-03-14T21:15:16.523Z,9.20
2023-03-14T21:20:19.769Z,9.80
2023-03-14T21:25:22.678Z,9.90
2023-03-14T21:30:25.630Z,9.30
2023-03-14T21:35:28.880Z,9.40
2023-03-14T21:40:31.737Z,9.40
2023-03-14T21:45:35.851Z,10.20
2023-03-14T21:50:38.800Z,9.50
2023-03-14T21:55:46.020Z,10.20
2023-03-14T22:00:49.455Z,9.90
2023-03-14T22:05:52.429Z,9.70
2023-03-14T22:10:56.120Z,9.10
2023-03-14T22:15:59.233Z,9.60
2023-03-14T22:21:02.199Z,8.60
2023-03-14T22:26:05.361Z,10.00
2023-03-14T22:31:09.964Z,9.20
2023-03-14T22:36:13.345Z,8.20
2023-03-14T22:41:16.414Z,9.30
2023-03-14T22:46:19.240Z,9.20
2023-03-14T22:51:22.195Z,8.90
2023-03-14T22:56:25.089Z,8.70
2023-03-14T23:01:28.254Z,7.90
2023-03-14T23:06:31.267Z,8.30
2023-03-14T23:11:35.550Z,8.50
2023-03-14T23:16:40.917Z,8.60
2023-03-14T23:21:44.225Z,8.50
2023-03-14T23:26:47.275Z,9.10
2023-03-14T23:31:50.267Z,9.10
2023-03-14T23:36:53.382Z,8.60
2023-03-14T23:41:56.210Z,8.40
2023-03-14T23:46:59.260Z,7.40
2023-03-14T23:52:04.879Z,8.90
2023-03-14T23:57:07.796Z,7.80
